Tiempo atmosférico en la estación meteorológica de Villarrobledo, Albacete (718 m.)



Fecha
DESCASC
Temp. máxima en grados centígrados (hora)
DESCASC
Temp. mínima en grados centígrados (hora)
DESCASC
Temp. media en grados centígrados
DESCASC
Racha de viento máxima en m/sg (hora)
DESCASC
Velocidad máxima media en intervalos de 10 minutos(hora)
DESCASC
Precipitaciones diarias en mm
DESCASC
Precipitaciones de 00:00 a 06:00 en mm
DESCASC
Precipitaciones de 06:00 a 12:00 en mm
DESCASC
Precipitaciones de 12:00 a 18:00 en mm
DESCASC
Precipitaciones de 18:00 a 24:00 en mm
DESCASC
21-02-2021 11.1 (16:30) 6 (23:59) 8.6 11.67 (23:59) 6.67 (23:10) 8.8 0 0 0 8.8
20-02-2021 23 (15:10) 2.9 (07:10) 13 9.72 (23:00) 5.56 (13:10) 0 0 0 0 0
19-02-2021 21.2 (15:30) 1.6 (07:50) 11.4 9.17 (15:20) 4.72 (17:40) 0 0 0 0 0
18-02-2021 19.2 (15:40) 1.5 (00:00) 10.4 8.06 (15:50) 5.28 (16:20) 0 0 0 0 0
17-02-2021 23.4 (14:30) 1.6 (00:00) 12.5 6.39 (17:20) 4.44 (17:30) 0 0 0 0 0
16-02-2021 18.7 (16:00) 2.4 (00:00) 10.6 7.22 (16:10) 4.72 (08:00) 0 0 0 0 0
15-02-2021 15 (16:40) 4 (00:00) 9.5 10.28 (13:00) 5.83 (15:20) 0 0 0 0 0
14-02-2021 16.5 (15:30) 0.5 (00:00) 8.5 8.89 (23:30) 5 (20:40) 0 0 0 0 0
13-02-2021 16 (15:20) 3.2 (00:00) 9.6 8.89 (14:30) 6.11 (14:30) 0 0 0 0 0
12-02-2021 15.1 (15:00) 6.9 (00:00) 11 14.17 (10:30) 9.17 (10:20) 0 0 0 0 0
11-02-2021 17.2 (16:00) 5.9 (00:00) 11.6 8.89 (11:20) 5.83 (13:10) 0 0 0 0 0
10-02-2021 14.1 (14:40) 6 (00:00) 10.1 18.33 (06:10) 11.11 (06:10) 0 0 0 0 0
09-02-2021 11.8 (13:50) 6.3 (00:00) 9.1 19.72 (13:30) 13.61 (13:30) 5.4 0.2 0 2 3.2
08-02-2021 10.4 (16:30) 5.4 (00:00) 7.9 17.5 (16:00) 11.67 (16:00) 2.6 0 1.6 1 0
07-02-2021 9.9 (15:50) 5.1 (00:00) 7.5 14.44 (16:50) 8.33 (20:30) 0.4 0 0 0 0.4
06-02-2021 11.6 (13:00) 6.8 (00:00) 9.2 13.89 (12:20) 9.17 (11:50) 3 1 0 1 1
05-02-2021 16.2 (15:50) 6.2 (00:00) 11.2 11.67 (19:10) 6.39 (17:20) 5.6 0 0 0 5.6
04-02-2021 20.3 (14:30) 4.7 (00:00) 12.5 11.94 (16:00) 7.22 (15:50) 0 0 0 0 0
03-02-2021 16.1 (16:20) 7.5 (00:00) 11.8 8.33 (12:00) 5.56 (10:50) 0 0 0 0 0
02-02-2021 16.2 (16:20) 7.4 (00:00) 11.8 10 (02:50) 6.11 (02:40) 0 0 0 0 0
01-02-2021 13.9 (14:00) 7.9 (00:00) 10.9 17.5 (15:40) 11.11 (15:30) 0 0 0 0 0
31-01-2021 11.4 (22:50) 5.8 (00:00) 8.6 16.94 (09:50) 10.28 (10:50) 0.4 0 0 0.4 0
30-01-2021 12.7 (13:40) 7.2 (00:00) 9.9 18.33 (16:40) 11.67 (12:10) 0.6 0 0.6 0 0
29-01-2021 19 (15:20) 3.1 (00:00) 11 10.28 (15:40) 7.22 (16:00) 0 0 0 0 0
28-01-2021 16.6 (14:50) 6.7 (00:00) 11.7 7.22 (02:50) 4.72 (03:10) 0.2 0 0.2 0 0
27-01-2021 18.2 (15:40) 10 (00:00) 14.1 8.33 (10:50) 5 (15:10) 0.2 0 0.2 0 0
26-01-2021 14.9 (16:20) 10.5 (00:00) 12.7 9.44 (00:50) 6.11 (00:50) 0.2 0 0 0.2 0
25-01-2021 13.4 (15:00) 7.8 (00:00) 10.6 17.78 (14:00) 11.11 (13:50) 0.2 0 0 0.2 0

Gráficas

Temp. máximas Temp. mínimas Temp. medias Precipitaciones Rachas de viento máximas Velocidades máximas media en intervalos de 10 minutos

Datos horarios

Fecha y hora oficial Temperatura (ºC) Velocidad del viento (km/h) Dirección del viento Racha (km/h) Dirección de racha Precipitación (mm) Presión (hPa) Tendencia (hPa) Humedad (%)
2021-02-23 23:00:00 7.6 14 Este 22 Sudeste 0 -- -- 80
2021-02-23 22:00:00 6.4 2 Este 12 Este 0 -- -- 83
2021-02-23 21:00:00 7.2 6 Nordeste 16 Este 0 -- -- 81
2021-02-23 20:00:00 8.9 6 Este 18 Este 0 -- -- 73
2021-02-23 19:00:00 10.4 10 Este 22 Este 0 -- -- 64
2021-02-23 18:00:00 12.5 12 Este 29 Este 0 -- -- 56
2021-02-23 17:00:00 12.7 13 Este 33 Nordeste 0 -- -- 57
2021-02-23 16:00:00 12.8 13 Este 34 Este 0 -- -- 54
2021-02-23 15:00:00 12.8 14 Este 32 Sudeste 0 -- -- 57
2021-02-23 14:00:00 12.6 14 Este 31 Nordeste 0 -- -- 61
2021-02-23 13:00:00 11 17 Este 29 Este 0 -- -- 67
2021-02-23 12:00:00 10.6 10 Este 29 Este 0 -- -- 69
2021-02-23 11:00:00 9.9 12 Este 24 Nordeste 0 -- -- 71
2021-02-23 10:00:00 7.1 11 Este 17 Este 0 -- -- 91
2021-02-23 09:00:00 4.1 5 Nordeste 7 Este 0 -- -- 94
2021-02-23 08:00:00 3.2 4 Nordeste 4 Este 0 -- -- 93
2021-02-23 07:00:00 3.1 0 Calma 0 Calma 0 -- -- 91
2021-02-23 06:00:00 4.4 0 Calma 5 Este 0 -- -- 88
2021-02-23 05:00:00 4.9 0 Calma 5 Oeste 0 -- -- 82
2021-02-23 04:00:00 5.5 3 Oeste 6 Oeste 0 -- -- 83
2021-02-23 03:00:00 5.8 4 Oeste 10 Sudoeste 0 -- -- 85
2021-02-23 02:00:00 6 0 Calma 3 Oeste 0 -- -- 87
2021-02-23 01:00:00 6.1 0 Calma 5 Sudoeste 0 -- -- 85
2021-02-23 00:00:00 6.4 0 Calma 3 Norte 0 -- -- 83
2021-02-22 23:00:00 6.7 0 Calma 5 Norte 0 -- -- 80
2021-02-22 22:00:00 6.5 3 Noroeste 4 Noroeste 0 -- -- 82
2021-02-22 21:00:00 5.8 0 Calma 6 Sudoeste 0 -- -- 86
2021-02-22 20:00:00 7.1 4 Oeste 12 Oeste 0 -- -- 82
2021-02-22 19:00:00 8 7 Oeste 18 Oeste 0 -- -- 77
2021-02-22 18:00:00 8.8 13 Oeste 27 Oeste 0 -- -- 65
2021-02-22 17:00:00 8.3 13 Oeste 23 Oeste 0 -- -- 72
2021-02-22 16:00:00 7.7 16 Oeste 29 Oeste 0 -- -- 75
2021-02-22 15:00:00 8.2 20 Oeste 29 Oeste 0 -- -- 69
2021-02-22 14:00:00 7.4 19 Oeste 34 Oeste 0 -- -- 70
2021-02-22 13:00:00 7.7 21 Oeste 36 Oeste 0 -- -- 70
2021-02-22 12:00:00 7 26 Oeste 36 Oeste 0 -- -- 76
2021-02-22 11:00:00 5.8 19 Sudoeste 36 Sudoeste 0 -- -- 83
2021-02-22 10:00:00 4.7 21 Sudoeste 37 Sudoeste 0 -- -- 87
2021-02-22 09:00:00 4.2 19 Sudoeste 37 Sudoeste 0 -- -- 89
2021-02-22 08:00:00 4.1 18 Sudoeste 39 Sudoeste 0 -- -- 90
2021-02-22 07:00:00 4.4 19 Sudoeste 36 Oeste 0 -- -- 90
2021-02-22 06:00:00 4.7 21 Sudoeste 37 Sudoeste 0 -- -- 91
2021-02-22 05:00:00 5.1 22 Sudoeste 37 Sudoeste 0.2 -- -- 91
2021-02-22 04:00:00 5.4 18 Sudoeste 34 Oeste 0.2 -- -- 92
2021-02-22 03:00:00 5.3 23 Oeste 42 Oeste 0.2 -- -- 91
2021-02-22 02:00:00 5.9 24 Sudoeste 45 Sudoeste 0 -- -- 90
2021-02-22 01:00:00 5.7 24 Sudoeste 44 Sudoeste 0 -- -- 91
2021-02-22 00:00:00 6 24 Sudoeste 42 Sudoeste 0 -- -- 89
2021-02-21 23:00:00 6.3 23 Sudoeste 41 Sudoeste 0.6 -- -- 90
2021-02-21 22:00:00 7.3 15 Sudoeste 31 Sudoeste 0.2 -- -- 91
2021-02-21 21:00:00 7.7 18 Sudoeste 36 Oeste 3.2 -- -- 90
2021-02-21 20:00:00 7.9 13 Sudoeste 29 Sudoeste 4.8 -- -- 90
2021-02-21 19:00:00 10.2 8 Este 25 Este 0 -- -- 80
2021-02-21 18:00:00 10.5 11 Este 29 Sudeste 0 -- -- 77
2021-02-21 17:00:00 11 12 Este 29 Este 0 -- -- 74
2021-02-21 16:00:00 10.7 13 Este 30 Este 0 -- -- 75
2021-02-21 15:00:00 10.4 14 Este 35 Nordeste 0 -- -- 77
2021-02-21 14:00:00 9.6 14 Este 32 Este 0 -- -- 81
2021-02-21 13:00:00 9.3 13 Este 29 Este 0 -- -- 82
2021-02-21 12:00:00 8.7 14 Este 34 Este 0 -- -- 82
2021-02-21 11:00:00 8.1 18 Este 35 Este 0 -- -- 85
2021-02-21 10:00:00 7.5 17 Este 34 Este 0 -- -- 88
2021-02-21 09:00:00 7.7 11 Este 27 Este 0 -- -- 88
2021-02-21 08:00:00 7.3 10 Este 34 Este 0 -- -- 88
2021-02-21 07:00:00 7.3 14 Este 41 Este 0 -- -- 88
2021-02-21 06:00:00 7.2 12 Este 28 Este 0 -- -- 88
2021-02-21 05:00:00 6.8 13 Este 32 Este 0 -- -- 86
2021-02-21 04:00:00 7 15 Este 34 Nordeste 0 -- -- 83
2021-02-21 03:00:00 7.1 13 Este 37 Este 0 -- -- 84
2021-02-21 02:00:00 7.4 15 Este 41 Este 0 -- -- 84
2021-02-21 01:00:00 7.3 17 Este 40 Este 0 -- -- 84
2021-02-21 00:00:00 7.7 14 Este 35 Este 0 -- -- 83
2021-02-20 23:00:00 8.5 15 Este 35 Este 0 -- -- 78
2021-02-20 22:00:00 10 16 Este 31 Este 0 -- -- 66
2021-02-20 21:00:00 10.9 10 Este 31 Este 0 -- -- 59
2021-02-20 20:00:00 12.4 5 Este 13 Nordeste 0 -- -- 53
2021-02-20 19:00:00 14.8 6 Este 20 Sudeste 0 -- -- 41
2021-02-20 18:00:00 18.5 10 Sudeste 23 Sudoeste 0 -- -- 31
2021-02-20 17:00:00 22.1 13 Sudoeste 24 Sudoeste 0 -- -- 16
2021-02-20 16:00:00 22 15 Sudoeste 31 Sudoeste 0 -- -- 16
2021-02-20 15:00:00 22.8 14 Sudoeste 31 Sudoeste 0 -- -- 16
2021-02-20 14:00:00 20.6 14 Sudoeste 30 Sudoeste 0 -- -- 18
2021-02-20 13:00:00 21.5 17 Sudoeste 32 Sudoeste 0 -- -- 19
2021-02-20 12:00:00 17.6 13 Nordeste 20 Nordeste 0 -- -- 42
2021-02-20 11:00:00 13 12 Nordeste 21 Este 0 -- -- 55
2021-02-20 10:00:00 8.2 13 Nordeste 21 Nordeste 0 -- -- 72
2021-02-20 09:00:00 4.1 12 Nordeste 19 Nordeste 0 -- -- 85
2021-02-20 08:00:00 3.4 10 Nordeste 19 Este 0 -- -- 88
2021-02-20 07:00:00 3 10 Nordeste 16 Nordeste 0 -- -- 88
2021-02-20 06:00:00 3.2 9 Nordeste 13 Nordeste 0 -- -- 89
2021-02-20 05:00:00 3.1 6 Nordeste 14 Nordeste 0 -- -- 88
2021-02-20 04:00:00 3.4 7 Nordeste 13 Nordeste 0 -- -- 87
2021-02-20 03:00:00 4.2 7 Nordeste 13 Nordeste 0 -- -- 82
2021-02-20 02:00:00 4.7 6 Nordeste 10 Este 0 -- -- 75
2021-02-20 01:00:00 5.8 7 Nordeste 10 Nordeste 0 -- -- 70
2021-02-20 00:00:00 7.7 6 Sudoeste 13 Sudeste 0 -- -- 62
2021-02-19 23:00:00 7.3 5 Sudeste 14 Sur 0 -- -- 58
2021-02-19 22:00:00 7.6 5 Sudeste 12 Sudeste 0 -- -- 53
2021-02-19 21:00:00 9.8 0 Calma 5 Sudeste 0 -- -- 44
2021-02-19 20:00:00 11.7 0 Calma 10 Sur 0 -- -- 37
2021-02-19 19:00:00 15.8 6 Sudoeste 22 Sudoeste 0 -- -- 27
2021-02-19 18:00:00 19.7 11 Sudoeste 27 Sudoeste 0 -- -- 21
2021-02-19 17:00:00 20.7 16 Sudoeste 29 Sudoeste 0 -- -- 20
2021-02-19 16:00:00 21.2 11 Sudoeste 33 Sudoeste 0 -- -- 19
2021-02-19 15:00:00 20.9 13 Sudoeste 29 Sudoeste 0 -- -- 19
2021-02-19 14:00:00 20.5 15 Sudoeste 25 Sudoeste 0 -- -- 19
2021-02-19 13:00:00 20.3 5 Nordeste 15 Nordeste 0 -- -- 30
2021-02-19 12:00:00 17.1 9 Nordeste 17 Nordeste 0 -- -- 40
2021-02-19 11:00:00 13.5 10 Nordeste 14 Nordeste 0 -- -- 55
2021-02-19 10:00:00 9.2 8 Nordeste 12 Nordeste 0 -- -- 68
2021-02-19 09:00:00 3 8 Nordeste 13 Nordeste 0 -- -- 90
2021-02-19 08:00:00 1.7 9 Nordeste 11 Nordeste 0 -- -- 89
2021-02-19 07:00:00 2.6 6 Nordeste 9 Nordeste 0 -- -- 87
2021-02-19 06:00:00 4.2 3 Este 6 Sur 0 -- -- 89
2021-02-19 05:00:00 4.6 2 Sudeste 9 Sudeste 0 -- -- 87
2021-02-19 04:00:00 4.7 2 Sur 7 Sur 0 -- -- 88
2021-02-19 03:00:00 4.6 4 Sur 13 Sur 0 -- -- 84
2021-02-19 02:00:00 4.6 3 Sudeste 12 Sudeste 0 -- -- 81
2021-02-19 01:00:00 4.7 0 Calma 6 Sudeste 0 -- -- 73
2021-02-19 00:00:00 6.1 0 Calma 7 Sudeste 0 -- -- 67
2021-02-18 23:00:00 7 4 Sudoeste 10 Sudoeste 0 -- -- 64
2021-02-18 22:00:00 8 0 Calma 6 Sudoeste 0 -- -- 59
2021-02-18 21:00:00 9.9 4 Sudoeste 9 Sudoeste 0 -- -- 52
2021-02-18 20:00:00 11.5 5 Sudoeste 9 Oeste 0 -- -- 46
2021-02-18 19:00:00 13.8 7 Oeste 23 Oeste 0 -- -- 43
2021-02-18 18:00:00 17.3 12 Sudoeste 23 Sudoeste 0 -- -- 30
2021-02-18 17:00:00 18.6 17 Oeste 27 Oeste 0 -- -- 26
2021-02-18 16:00:00 19.1 16 Oeste 29 Oeste 0 -- -- 25
2021-02-18 15:00:00 18.6 16 Oeste 25 Oeste 0 -- -- 28
2021-02-18 14:00:00 18.5 17 Oeste 25 Oeste 0 -- -- 30
2021-02-18 13:00:00 16.7 10 Oeste 19 Oeste 0 -- -- 41
2021-02-18 12:00:00 17.7 5 Oeste 13 Oeste 0 -- -- 37
2021-02-18 11:00:00 14.8 0 Calma 4 Oeste 0 -- -- 44
2021-02-18 10:00:00 9.5 3 Nordeste 5 Nordeste 0 -- -- 61
2021-02-18 09:00:00 2.4 0 Calma 5 Sudeste 0 -- -- 81
2021-02-18 08:00:00 1.5 0 Calma 4 Este 0 -- -- 88
2021-02-18 07:00:00 1.7 0 Calma 6 Este 0 -- -- 87
2021-02-18 06:00:00 2.4 4 Nordeste 10 Este 0 -- -- 87
2021-02-18 05:00:00 3.2 8 Este 11 Este 0 -- -- 85
2021-02-18 04:00:00 3.6 7 Nordeste 10 Nordeste 0 -- -- 85
2021-02-18 03:00:00 4 4 Nordeste 6 Este 0 -- -- 80
2021-02-18 02:00:00 4.9 3 Este 6 Este 0 -- -- 77
2021-02-18 01:00:00 5.7 0 Calma 8 Este 0 -- -- 75
2021-02-18 00:00:00 7 3 Sudeste 9 Sudeste 0 -- -- 69
2021-02-17 23:00:00 7.6 6 Sudeste 10 Sudeste 0 -- -- 68
2021-02-17 22:00:00 9.1 5 Sur 10 Sudeste 0 -- -- 60
2021-02-17 21:00:00 10.6 8 Sudeste 13 Sudeste 0 -- -- 50
2021-02-17 20:00:00 12.6 0 Calma 16 Oeste 0 -- -- 42
2021-02-17 19:00:00 16 12 Oeste 19 Oeste 0 -- -- 31
2021-02-17 18:00:00 19.5 15 Oeste 23 Oeste 0 -- -- 23
2021-02-17 17:00:00 21.1 11 Oeste 21 Sudoeste 0 -- -- 24
2021-02-17 16:00:00 22.5 12 Oeste 22 Oeste 0 -- -- 24
2021-02-17 15:00:00 23.1 8 Oeste 15 Oeste 0 -- -- 24
2021-02-17 14:00:00 21.7 5 Oeste 9 Sudoeste 0 -- -- 28
2021-02-17 13:00:00 20 3 Sudoeste 9 Nordeste 0 -- -- 31
2021-02-17 12:00:00 16.9 4 Este 10 Nordeste 0 -- -- 40
2021-02-17 11:00:00 13.5 6 Nordeste 9 Este 0 -- -- 52
2021-02-17 10:00:00 9.1 6 Nordeste 9 Nordeste 0 -- -- 65
2021-02-17 09:00:00 2.4 3 Este 8 Este 0 -- -- 85
2021-02-17 08:00:00 1.6 3 Nordeste 8 Este 0 -- -- 83
2021-02-17 07:00:00 1.8 4 Nordeste 12 Este 0 -- -- 82
2021-02-17 06:00:00 2.3 2 Sudeste 5 Sur 0 -- -- 80
2021-02-17 05:00:00 2.2 0 Calma 3 Sur 0 -- -- 84
2021-02-17 04:00:00 3.1 0 Calma 5 Sudeste 0 -- -- 79
2021-02-17 03:00:00 4.2 2 Sudeste 5 Sudeste 0 -- -- 78
2021-02-17 02:00:00 4.5 0 Calma 4 Sudoeste 0 -- -- 80
2021-02-17 01:00:00 5.6 0 Calma 4 Sudoeste 0 -- -- 74
2021-02-17 00:00:00 6 0 Calma 9 Sudeste 0 -- -- 74
2021-02-16 23:00:00 7.1 3 Sudeste 9 Sudeste 0 -- -- 69
2021-02-16 22:00:00 7.9 0 Calma 7 Sudeste 0 -- -- 67
2021-02-16 21:00:00 8.9 2 Sudoeste 6 Oeste 0 -- -- 62
2021-02-16 20:00:00 10.9 3 Oeste 8 Sudoeste 0 -- -- 55
2021-02-16 19:00:00 13.7 6 Sudoeste 13 Oeste 0 -- -- 44
2021-02-16 18:00:00 17.3 10 Oeste 20 Oeste 0 -- -- 35
2021-02-16 17:00:00 18.3 15 Oeste 26 Oeste 0 -- -- 31
2021-02-16 16:00:00 18.7 15 Oeste 25 Sudoeste 0 -- -- 34
2021-02-16 15:00:00 17.5 15 Oeste 24 Sudoeste 0 -- -- 37
2021-02-16 14:00:00 16.6 10 Oeste 16 Sudoeste 0 -- -- 43
2021-02-16 13:00:00 16 3 Norte 14 Nordeste 0 -- -- 50
2021-02-16 12:00:00 9 9 Nordeste 15 Este 0 -- -- 91
2021-02-16 11:00:00 4.7 12 Nordeste 16 Nordeste 0 -- -- 95
2021-02-16 10:00:00 3.4 9 Este 17 Este 0 -- -- 95
2021-02-16 09:00:00 3 13 Nordeste 23 Nordeste 0 -- -- 95
2021-02-16 08:00:00 2.6 17 Nordeste 24 Nordeste 0 -- -- 95
2021-02-16 07:00:00 2.6 12 Nordeste 19 Este 0 -- -- 94
2021-02-16 06:00:00 2.8 11 Este 21 Este 0 -- -- 94
2021-02-16 05:00:00 2.9 7 Este 19 Nordeste 0 -- -- 94
2021-02-16 04:00:00 3 13 Nordeste 20 Nordeste 0 -- -- 93
2021-02-16 03:00:00 3.5 10 Nordeste 19 Nordeste 0 -- -- 93
2021-02-16 02:00:00 4 12 Nordeste 22 Nordeste 0 -- -- 92
2021-02-16 01:00:00 4.3 13 Nordeste 21 Nordeste 0 -- -- 91
2021-02-16 00:00:00 5.2 13 Nordeste 22 Nordeste 0 -- -- 88
2021-02-15 23:00:00 5.9 9 Este 19 Este 0 -- -- 84
2021-02-15 22:00:00 6.4 9 Este 19 Este 0 -- -- 82
2021-02-15 21:00:00 7.6 7 Este 23 Este 0 -- -- 78
2021-02-15 20:00:00 9.3 12 Este 30 Nordeste 0 -- -- 71
2021-02-15 19:00:00 11 16 Este 33 Este 0 -- -- 65
2021-02-15 18:00:00 13.6 13 Este 36 Nordeste 0 -- -- 56
2021-02-15 17:00:00 14.6 18 Este 34 Este 0 -- -- 53
2021-02-15 16:00:00 14.9 19 Este 34 Nordeste 0 -- -- 52
2021-02-15 15:00:00 14.8 14 Este 35 Este 0 -- -- 51
2021-02-15 14:00:00 13.8 14 Este 30 Sudeste 0 -- -- 55
2021-02-15 13:00:00 13.3 17 Este 37 Este 0 -- -- 57
2021-02-15 12:00:00 12.3 13 Este 30 Sudeste 0 -- -- 62
2021-02-15 11:00:00 10.3 14 Este 26 Sudeste 0 -- -- 73
2021-02-15 10:00:00 7.8 12 Este 26 Este 0 -- -- 89
2021-02-15 09:00:00 4.5 11 Este 22 Este 0 -- -- 95
2021-02-15 08:00:00 4.1 11 Este 21 Nordeste 0 -- -- 94
2021-02-15 07:00:00 4.5 10 Este 21 Nordeste 0 -- -- 93
2021-02-15 06:00:00 4.9 9 Nordeste 18 Nordeste 0 -- -- 93
2021-02-15 05:00:00 5.1 9 Este 19 Nordeste 0 -- -- 92
2021-02-15 04:00:00 5.7 12 Este 22 Nordeste 0 -- -- 90
2021-02-15 03:00:00 6.4 10 Este 29 Nordeste 0 -- -- 87
2021-02-15 02:00:00 6.8 10 Este 26 Este 0 -- -- 86
2021-02-15 01:00:00 6.7 10 Este 26 Este 0 -- -- 88
2021-02-15 00:00:00 6.9 13 Este 32 Este 0 -- -- 87
2021-02-14 23:00:00 7.2 13 Este 28 Nordeste 0 -- -- 82
2021-02-14 22:00:00 7.8 11 Este 25 Este 0 -- -- 79
2021-02-14 21:00:00 8.5 12 Este 28 Este 0 -- -- 77
2021-02-14 20:00:00 10.5 10 Este 22 Este 0 -- -- 64
2021-02-14 19:00:00 12.2 8 Este 23 Este 0 -- -- 55
2021-02-14 18:00:00 14.6 13 Este 30 Este 0 -- -- 46
2021-02-14 17:00:00 15.9 12 Este 29 Este 0 -- -- 44
2021-02-14 16:00:00 16.3 13 Este 29 Sudeste 0 -- -- 43
2021-02-14 15:00:00 15.8 14 Este 26 Este 0 -- -- 47
2021-02-14 14:00:00 14.3 12 Este 27 Este 0 -- -- 51
2021-02-14 13:00:00 13.5 13 Este 31 Este 0 -- -- 54
2021-02-14 12:00:00 12.2 12 Este 23 Nordeste 0 -- -- 59
2021-02-14 11:00:00 9.8 13 Este 22 Este 0 -- -- 69
2021-02-14 10:00:00 6.9 14 Nordeste 19 Nordeste 0 -- -- 77
2021-02-14 09:00:00 1.2 4 Nordeste 6 Nordeste 0 -- -- 93
2021-02-14 08:00:00 0.7 0 Calma 5 Sudeste 0 -- -- 91
2021-02-14 07:00:00 1.1 0 Calma 8 Este 0 -- -- 90
2021-02-14 06:00:00 2.1 3 Sudeste 10 Sudeste 0 -- -- 87
2021-02-14 05:00:00 1.9 0 Calma 4 Sur 0 -- -- 89
2021-02-14 04:00:00 2.4 2 Sudoeste 9 Sudeste 0 -- -- 87
2021-02-14 03:00:00 3.2 2 Sudeste 9 Sur 0 -- -- 87
2021-02-14 02:00:00 3.6 0 Calma 8 Sudeste 0 -- -- 84
2021-02-14 01:00:00 4.8 2 Sur 7 Oeste 0 -- -- 82
2021-02-14 00:00:00 4.4 2 Oeste 10 Sudeste 0 -- -- 83
2021-02-13 23:00:00 5.7 4 Sudeste 7 Sudoeste 0 -- -- 77
2021-02-13 22:00:00 6.5 3 Sudoeste 7 Sudoeste 0 -- -- 77
2021-02-13 21:00:00 8.2 0 Calma 12 Noroeste 0 -- -- 70
2021-02-13 20:00:00 10.4 6 Noroeste 12 Oeste 0 -- -- 60
2021-02-13 19:00:00 12.1 7 Oeste 23 Oeste 0 -- -- 49
2021-02-13 18:00:00 15.4 15 Oeste 29 Oeste 0 -- -- 40
2021-02-13 17:00:00 15.6 15 Oeste 27 Oeste 0 -- -- 46
2021-02-13 16:00:00 15.9 16 Oeste 31 Oeste 0 -- -- 42
2021-02-13 15:00:00 14.8 20 Oeste 32 Oeste 0 -- -- 45
2021-02-13 14:00:00 14.3 19 Oeste 32 Oeste 0 -- -- 56
2021-02-13 13:00:00 12.9 14 Oeste 25 Oeste 0 -- -- 62
2021-02-13 08:00:00 -- -- -- -- -- -- -- -- --
2021-02-13 07:00:00 -- -- -- -- -- -- -- -- --
2021-02-13 06:00:00 3.9 5 Sudoeste 12 Oeste 0 -- -- 92
2021-02-13 05:00:00 3.8 4 Sudoeste 10 Oeste 0 -- -- 92
2021-02-13 04:00:00 4.7 8 Sudoeste 15 Oeste 0 -- -- 90
2021-02-13 03:00:00 5.5 10 Oeste 18 Oeste 0 -- -- 88
2021-02-13 02:00:00 6.5 13 Oeste 23 Oeste 0 -- -- 84
2021-02-13 01:00:00 6.9 14 Oeste 23 Oeste 0 -- -- 83
2021-02-13 00:00:00 6.9 11 Oeste 22 Oeste 0 -- -- 82
2021-02-12 23:00:00 7.4 8 Sudoeste 22 Oeste 0 -- -- 79
2021-02-12 22:00:00 8.5 13 Oeste 20 Oeste 0 -- -- 75
2021-02-12 21:00:00 9.6 10 Oeste 25 Noroeste 0 -- -- 70
2021-02-12 20:00:00 9.8 13 Oeste 32 Oeste 0 -- -- 71
2021-02-12 19:00:00 11.6 18 Oeste 31 Oeste 0 -- -- 62
2021-02-12 18:00:00 13.6 24 Oeste 43 Oeste 0 -- -- 53
2021-02-12 17:00:00 14.7 26 Oeste 42 Oeste 0 -- -- 49
2021-02-12 16:00:00 14.1 26 Oeste 44 Oeste 0 -- -- 50
2021-02-12 15:00:00 15.1 26 Oeste 45 Oeste 0 -- -- 50
2021-02-12 14:00:00 14.1 27 Oeste 44 Oeste 0 -- -- 57
2021-02-12 13:00:00 13.3 30 Oeste 45 Oeste 0 -- -- 61
2021-02-12 12:00:00 11.3 17 Oeste 44 Oeste 0 -- -- 73
2021-02-12 11:00:00 12.5 30 Oeste 51 Oeste 0 -- -- 77
2021-02-12 10:00:00 11.3 30 Oeste 47 Oeste 0 -- -- 87
2021-02-12 09:00:00 10.4 22 Sudoeste 40 Sudoeste 0 -- -- 92
2021-02-12 08:00:00 10.5 9 Sudoeste 20 Sudoeste 0 -- -- 88
2021-02-12 07:00:00 10.3 14 Sudoeste 29 Sudoeste 0 -- -- 87
2021-02-12 06:00:00 11 11 Sudoeste 23 Sudoeste 0 -- -- 87
2021-02-12 05:00:00 11 15 Sudoeste 23 Sudoeste 0 -- -- 88
2021-02-12 04:00:00 10.8 8 Sudoeste 16 Sudoeste 0 -- -- 90
2021-02-12 03:00:00 10.9 10 Sudoeste 15 Sudoeste 0 -- -- 89
2021-02-12 02:00:00 11.1 8 Sudoeste 15 Sudoeste 0 -- -- 89
2021-02-12 01:00:00 11.3 10 Sudoeste 15 Sudoeste 0 -- -- 88
2021-02-12 00:00:00 11.1 9 Sudoeste 14 Sudoeste 0 -- -- 88
2021-02-11 23:00:00 11.5 8 Sudoeste 14 Sur 0 -- -- 88
2021-02-11 22:00:00 11.8 5 Sudoeste 8 Sudoeste 0 -- -- 89
2021-02-11 21:00:00 11.7 3 Sudoeste 6 Sudoeste 0 -- -- 87
2021-02-11 20:00:00 11.9 3 Sur 10 Oeste 0 -- -- 85
2021-02-11 19:00:00 12.9 8 Oeste 19 Oeste 0 -- -- 80
2021-02-11 18:00:00 14 11 Oeste 23 Oeste 0 -- -- 73
2021-02-11 17:00:00 15.3 16 Oeste 26 Oeste 0 -- -- 66
2021-02-11 16:00:00 17.2 17 Oeste 27 Oeste 0 -- -- 61
2021-02-11 15:00:00 14.3 19 Oeste 28 Oeste 0 -- -- 72
2021-02-11 14:00:00 14.5 17 Oeste 28 Oeste 0 -- -- 73
2021-02-11 13:00:00 13.5 17 Oeste 30 Oeste 0 -- -- 74
2021-02-11 12:00:00 12.5 15 Sudoeste 32 Oeste 0 -- -- 81
2021-02-11 11:00:00 12 18 Oeste 28 Sudoeste 0 -- -- 84
2021-02-11 10:00:00 10.6 13 Oeste 26 Sudoeste 0 -- -- 94
2021-02-11 09:00:00 9.5 11 Oeste 18 Oeste 0 -- -- 95
2021-02-11 08:00:00 8.9 7 Oeste 15 Oeste 0 -- -- 94
2021-02-11 07:00:00 8.5 6 Oeste 16 Sudoeste 0 -- -- 94
2021-02-11 06:00:00 7.9 8 Oeste 20 Sudoeste 0 -- -- 94
2021-02-11 05:00:00 7.3 7 Sudoeste 19 Oeste 0 -- -- 94
2021-02-11 04:00:00 8.1 12 Sudoeste 27 Oeste 0 -- -- 93
2021-02-11 03:00:00 8.4 15 Sudoeste 28 Oeste 0 -- -- 92
2021-02-11 02:00:00 6.2 9 Sudoeste 19 Sudoeste 0 -- -- 92
2021-02-11 01:00:00 6 13 Sudoeste 21 Sudoeste 0 -- -- 90
2021-02-11 00:00:00 6 10 Sudoeste 17 Sudoeste 0 -- -- 87
2021-02-10 23:00:00 7 10 Sudoeste 25 Sudoeste 0 -- -- 83
2021-02-10 22:00:00 8 14 Sudoeste 30 Sudoeste 0 -- -- 78
2021-02-10 21:00:00 8.5 16 Sudoeste 29 Sudoeste 0 -- -- 73
2021-02-10 20:00:00 9.3 16 Sudoeste 30 Sudoeste 0 -- -- 71
2021-02-10 19:00:00 10.3 12 Sudoeste 31 Sudoeste 0 -- -- 71
2021-02-10 18:00:00 12.7 20 Oeste 36 Sudoeste 0 -- -- 56
2021-02-10 17:00:00 13.7 27 Oeste 44 Oeste 0 -- -- 51
2021-02-10 16:00:00 14 23 Sudoeste 41 Sudoeste 0 -- -- 52
2021-02-10 15:00:00 14.1 27 Oeste 42 Oeste 0 -- -- 54
2021-02-10 14:00:00 13.9 22 Oeste 44 Oeste 0 -- -- 53
2021-02-10 13:00:00 13 25 Oeste 46 Sudoeste 0 -- -- 57
2021-02-10 12:00:00 11.4 29 Oeste 53 Sudoeste 0 -- -- 69
2021-02-10 11:00:00 10.5 33 Oeste 58 Sudoeste 0 -- -- 78
2021-02-10 10:00:00 9.2 29 Sudoeste 51 Sudoeste 0 -- -- 83
2021-02-10 09:00:00 7.5 28 Sudoeste 57 Sudoeste 0 -- -- 87
2021-02-10 08:00:00 8 34 Sudoeste 60 Sudoeste 0 -- -- 86
2021-02-10 07:00:00 7.8 31 Sudoeste 66 Sudoeste 0 -- -- 82
2021-02-10 06:00:00 7.9 34 Sudoeste 57 Sudoeste 0 -- -- 79
2021-02-10 05:00:00 7.8 30 Sudoeste 64 Sudoeste 0 -- -- 78
2021-02-10 04:00:00 8 30 Sudoeste 50 Sudoeste 0 -- -- 82
2021-02-10 03:00:00 7.8 26 Sudoeste 50 Sudoeste 0 -- -- 86
2021-02-10 02:00:00 8.2 25 Sudoeste 42 Sudoeste 0 -- -- 87
2021-02-10 01:00:00 7.9 23 Sudoeste 42 Oeste 0 -- -- 87
2021-02-10 00:00:00 8.6 26 Sudoeste 42 Oeste 0 -- -- 87
2021-02-09 23:00:00 8.5 22 Sudoeste 53 Oeste 0.2 -- -- 91
2021-02-09 22:00:00 8.8 23 Oeste 41 Sudoeste 1 -- -- 93
2021-02-09 21:00:00 8.9 31 Oeste 48 Sudoeste 0.6 -- -- 93
2021-02-09 20:00:00 8.2 18 Sudoeste 36 Oeste 0 -- -- 91
2021-02-09 19:00:00 8.7 23 Sudoeste 55 Sudoeste 1.4 -- -- 93
2021-02-09 18:00:00 9.7 30 Sudoeste 66 Sudoeste 0.8 -- -- 89
2021-02-09 17:00:00 9.9 33 Sudoeste 58 Sudoeste 1 -- -- 88
2021-02-09 16:00:00 10.1 39 Sudoeste 67 Sudoeste 0.2 -- -- 86
2021-02-09 15:00:00 11.3 45 Sudoeste 66 Sudoeste 0 -- -- 75
2021-02-09 14:00:00 11.5 44 Sudoeste 71 Sudoeste 0 -- -- 73
2021-02-09 13:00:00 11.3 42 Sudoeste 64 Sudoeste 0 -- -- 70
2021-02-09 12:00:00 10.8 33 Sudoeste 52 Sudoeste 0 -- -- 71
2021-02-09 11:00:00 9 22 Sudoeste 35 Sudoeste 0 -- -- 85
2021-02-09 10:00:00 8.7 20 Sudoeste 32 Sudoeste 0 -- -- 80
2021-02-09 09:00:00 7.3 19 Sudoeste 35 Sudoeste 0 -- -- 85
2021-02-09 08:00:00 6.7 21 Sudoeste 38 Sudoeste 0 -- -- 89
2021-02-09 07:00:00 6.4 15 Sudoeste 35 Sudoeste 0 -- -- 89
2021-02-09 06:00:00 6.7 14 Sudoeste 34 Sudoeste 0 -- -- 87
2021-02-09 05:00:00 6.6 16 Sudoeste 34 Sudoeste 0 -- -- 87
2021-02-09 04:00:00 6.8 22 Sudoeste 40 Sudoeste 0.2 -- -- 85
2021-02-09 03:00:00 6.6 23 Sudoeste 40 Sudoeste 0 -- -- 86
2021-02-09 02:00:00 6.3 17 Sudoeste 35 Sudoeste 0 -- -- 85
2021-02-09 01:00:00 6.5 22 Sudoeste 37 Sudoeste 0 -- -- 83
2021-02-09 00:00:00 6.5 20 Sudoeste 48 Sudoeste 0 -- -- 85
2021-02-08 23:00:00 6.5 25 Sudoeste 45 Sudoeste 0 -- -- 84
2021-02-08 22:00:00 6.8 27 Sudoeste 45 Sudoeste 0 -- -- 82
2021-02-08 21:00:00 7.1 28 Sudoeste 48 Sudoeste 0 -- -- 82
2021-02-08 20:00:00 7 28 Sudoeste 45 Sudoeste 0 -- -- 85
2021-02-08 19:00:00 7.7 27 Sudoeste 45 Sudoeste 0 -- -- 81
2021-02-08 18:00:00 8.8 27 Sudoeste 53 Sudoeste 0 -- -- 74
2021-02-08 17:00:00 10 35 Sudoeste 54 Sudoeste 0 -- -- 70
2021-02-08 16:00:00 9.6 42 Oeste 63 Sudoeste 0 -- -- 72
2021-02-08 15:00:00 8 30 Sudoeste 60 Sudoeste 0.6 -- -- 88
2021-02-08 14:00:00 8.9 34 Sudoeste 60 Sudoeste 0.4 -- -- 77
2021-02-08 13:00:00 8.5 26 Sudoeste 52 Oeste 0 -- -- 79
2021-02-08 12:00:00 8.7 33 Oeste 56 Sudoeste 0 -- -- 74
2021-02-08 11:00:00 8.3 27 Sudoeste 52 Sudoeste 0 -- -- 80
2021-02-08 10:00:00 7.7 27 Sudoeste 51 Sudoeste 0 -- -- 84
2021-02-08 09:00:00 7.4 24 Sudoeste 56 Sudoeste 0 -- -- 85
2021-02-08 08:00:00 8 40 Sudoeste 54 Sudoeste 1.6 -- -- 87
2021-02-08 07:00:00 7.9 31 Sudoeste 51 Sudoeste 0 -- -- 86
2021-02-08 06:00:00 7.4 29 Sudoeste 57 Sudoeste 0 -- -- 85
2021-02-08 05:00:00 7 33 Sudoeste 53 Sudoeste 0 -- -- 85
2021-02-08 04:00:00 6.3 23 Sudoeste 37 Sudoeste 0 -- -- 88
2021-02-08 03:00:00 6 26 Sudoeste 38 Sudoeste 0 -- -- 84
2021-02-08 02:00:00 6 24 Sudoeste 38 Sudoeste 0 -- -- 85
2021-02-08 01:00:00 5.8 22 Sudoeste 40 Sudoeste 0 -- -- 86
2021-02-08 00:00:00 5.4 23 Sudoeste 44 Sudoeste 0 -- -- 89
2021-02-07 23:00:00 5.1 18 Sudoeste 40 Sudoeste 0.4 -- -- 91
2021-02-07 22:00:00 5.2 23 Sudoeste 44 Sudoeste 0 -- -- 87
2021-02-07 21:00:00 6 27 Sudoeste 51 Oeste 0 -- -- 78
2021-02-07 20:00:00 7 25 Sudoeste 48 Sudoeste 0 -- -- 78
2021-02-07 19:00:00 7.5 28 Sudoeste 46 Oeste 0 -- -- 73
2021-02-07 18:00:00 8.4 27 Sudoeste 45 Sudoeste 0 -- -- 71
2021-02-07 17:00:00 9.1 26 Sudoeste 52 Sudoeste 0 -- -- 75
2021-02-07 16:00:00 9.2 22 Oeste 35 Oeste 0 -- -- 78
2021-02-07 15:00:00 9 21 Oeste 30 Oeste 0 -- -- 75
2021-02-07 14:00:00 8.8 13 Oeste 20 Oeste 0 -- -- 74
2021-02-07 13:00:00 8.5 11 Oeste 22 Oeste 0 -- -- 71
2021-02-07 12:00:00 8.3 13 Noroeste 22 Noroeste 0 -- -- 75
2021-02-07 11:00:00 7.8 13 Oeste 23 Oeste 0 -- -- 78
2021-02-07 10:00:00 6.6 15 Oeste 24 Oeste 0 -- -- 87
2021-02-07 09:00:00 6.1 10 Oeste 23 Oeste 0 -- -- 92
2021-02-07 08:00:00 6.1 16 Oeste 23 Oeste 0 -- -- 92
2021-02-07 07:00:00 6.1 15 Oeste 24 Oeste 0 -- -- 91
2021-02-07 06:00:00 6.3 15 Oeste 30 Oeste 0 -- -- 90
2021-02-07 05:00:00 6.7 17 Oeste 35 Oeste 0 -- -- 88
2021-02-07 04:00:00 7.1 14 Oeste 25 Sudoeste 0 -- -- 93
2021-02-07 03:00:00 7.3 17 Oeste 28 Sudoeste 0 -- -- 91
2021-02-07 02:00:00 7.4 13 Sudoeste 24 Sudoeste 0 -- -- 90
2021-02-07 01:00:00 7.3 11 Sudoeste 19 Sudoeste 0 -- -- 89
2021-02-07 00:00:00 7.2 13 Sudoeste 23 Sudoeste 0 -- -- 88
2021-02-06 23:00:00 7.5 11 Sudoeste 23 Sudoeste 0 -- -- 87
2021-02-06 22:00:00 7.5 9 Sudoeste 17 Sudoeste 0 -- -- 90
2021-02-06 21:00:00 7.5 7 Sudoeste 18 Oeste 0 -- -- 90
2021-02-06 20:00:00 7.5 12 Sudoeste 21 Sudoeste 0 -- -- 91
2021-02-06 19:00:00 7.5 10 Oeste 37 Sudoeste 1 -- -- 92
2021-02-06 18:00:00 7.8 11 Sudoeste 28 Sudoeste 1 -- -- 89
2021-02-06 17:00:00 8.8 13 Oeste 27 Oeste 0 -- -- 82
2021-02-06 16:00:00 9.3 17 Oeste 31 Sudoeste 0 -- -- 78
2021-02-06 15:00:00 9.8 19 Sudoeste 38 Sudoeste 0 -- -- 74
2021-02-06 14:00:00 9.8 24 Sudoeste 42 Sur 0 -- -- 71
2021-02-06 13:00:00 11.6 26 Sudoeste 50 Sudoeste 0 -- -- 66
2021-02-06 12:00:00 9.8 26 Sudoeste 45 Sudoeste 0 -- -- 69
2021-02-06 11:00:00 8.9 14 Sur 27 Sudoeste 0 -- -- 81
2021-02-06 10:00:00 10.1 10 Sur 17 Sudoeste 0 -- -- 74
2021-02-06 09:00:00 7.7 5 Sudeste 13 Sudeste 0 -- -- 88
2021-02-06 08:00:00 7.3 4 Sur 14 Sudeste 0 -- -- 89
2021-02-06 07:00:00 7.3 2 Sudeste 5 Sudeste 0 -- -- 92
2021-02-06 06:00:00 7 0 Calma 13 Sudoeste 0 -- -- 89
2021-02-06 05:00:00 7.6 0 Calma 12 Sur 0.2 -- -- 91
2021-02-06 04:00:00 7.8 4 Sudeste 9 Sudeste 0 -- -- 92
2021-02-06 03:00:00 8.4 6 Sudoeste 11 Sudoeste 0.8 -- -- 90
2021-02-06 02:00:00 8.8 4 Sur 12 Sudeste 0 -- -- 87
2021-02-06 01:00:00 8.7 8 Sudoeste 16 Sudoeste 0 -- -- 86
2021-02-06 00:00:00 8.7 8 Sudoeste 26 Este 1.6 -- -- 88
2021-02-05 23:00:00 8.5 9 Este 21 Este 0.2 -- -- 92
2021-02-05 22:00:00 8.9 5 Sudeste 33 Sudoeste 3.4 -- -- 86
2021-02-05 21:00:00 8.8 9 Este 31 Sudeste 0.4 -- -- 84
2021-02-05 20:00:00 9.1 10 Este 42 Este 0 -- -- 84
2021-02-05 19:00:00 10.5 19 Nordeste 37 Nordeste 0 -- -- 78
2021-02-05 18:00:00 14.2 15 Este 39 Este 0 -- -- 59
2021-02-05 17:00:00 15.4 18 Este 42 Este 0 -- -- 53
2021-02-05 16:00:00 16 17 Este 35 Este 0 -- -- 55
2021-02-05 15:00:00 15.7 19 Este 41 Este 0 -- -- 57
2021-02-05 14:00:00 15 16 Este 38 Este 0 -- -- 61
2021-02-05 13:00:00 14.6 15 Este 35 Este 0 -- -- 63
2021-02-05 12:00:00 12.6 15 Este 34 Este 0 -- -- 70
2021-02-05 11:00:00 10.2 17 Este 32 Este 0 -- -- 76
2021-02-05 10:00:00 8.5 13 Este 36 Nordeste 0 -- -- 82
2021-02-05 09:00:00 6.4 10 Este 26 Nordeste 0 -- -- 86
2021-02-05 08:00:00 6.5 12 Este 35 Este 0 -- -- 86
2021-02-05 07:00:00 7.2 14 Este 33 Este 0 -- -- 83
2021-02-05 06:00:00 7.6 12 Este 30 Este 0 -- -- 83
2021-02-05 05:00:00 8.1 12 Este 27 Este 0 -- -- 83
2021-02-05 04:00:00 8.3 10 Este 26 Este 0 -- -- 85
2021-02-05 03:00:00 8.8 15 Este 26 Este 0 -- -- 84
2021-02-05 02:00:00 8.3 9 Este 24 Nordeste 0 -- -- 86
2021-02-05 01:00:00 7.4 9 Nordeste 17 Nordeste 0 -- -- 89
2021-02-05 00:00:00 7.8 8 Nordeste 18 Este 0 -- -- 86
2021-02-04 23:00:00 7 10 Nordeste 15 Nordeste 0 -- -- 87
2021-02-04 22:00:00 8.3 0 Calma 9 Sudeste 0 -- -- 81
2021-02-04 21:00:00 9.1 2 Este 12 Nordeste 0 -- -- 79
2021-02-04 20:00:00 10.5 0 Calma 3 Sudoeste 0 -- -- 73
2021-02-04 19:00:00 12.7 2 Noroeste 12 Noroeste 0 -- -- 64
2021-02-04 18:00:00 14.7 10 Oeste 21 Oeste 0 -- -- 56
2021-02-04 17:00:00 17 16 Oeste 26 Oeste 0 -- -- 51
2021-02-04 16:00:00 19.1 23 Oeste 43 Sudoeste 0 -- -- 39
2021-02-04 15:00:00 20.3 22 Sudoeste 38 Sudoeste 0 -- -- 31
2021-02-04 14:00:00 17.2 17 Nordeste 30 Este 0 -- -- 54
2021-02-04 13:00:00 15.4 12 Este 27 Este 0 -- -- 59
2021-02-04 12:00:00 13.6 11 Este 24 Nordeste 0 -- -- 65
2021-02-04 11:00:00 10.4 15 Este 27 Este 0 -- -- 78
2021-02-04 10:00:00 7.3 10 Este 17 Este 0 -- -- 92
2021-02-04 09:00:00 5.4 5 Este 14 Nordeste 0 -- -- 93
2021-02-04 08:00:00 5.2 2 Sudeste 8 Este 0 -- -- 94
2021-02-04 07:00:00 5.1 2 Este 6 Este 0 -- -- 94
2021-02-04 06:00:00 5 0 Calma 6 Sudeste 0 -- -- 94
2021-02-04 05:00:00 5.4 3 Sudeste 6 Sudeste 0 -- -- 93
2021-02-04 04:00:00 6 0 Calma 7 Este 0 -- -- 89
2021-02-04 03:00:00 6.8 5 Nordeste 6 Este 0 -- -- 86
2021-02-04 02:00:00 6.7 0 Calma 4 Sudeste 0 -- -- 87
2021-02-04 01:00:00 7.2 2 Sudeste 11 Sudeste 0 -- -- 85
2021-02-04 00:00:00 8.3 8 Sudeste 13 Sudeste 0 -- -- 80
2021-02-03 23:00:00 7.7 5 Sudeste 9 Sudeste 0 -- -- 83
2021-02-03 22:00:00 8.3 4 Sudeste 10 Sudeste 0 -- -- 86
2021-02-03 21:00:00 8.8 3 Sudeste 7 Sudeste 0 -- -- 85
2021-02-03 20:00:00 10 0 Calma 5 Noroeste 0 -- -- 82
2021-02-03 19:00:00 11.5 4 Noroeste 14 Noroeste 0 -- -- 75
2021-02-03 18:00:00 13.9 11 Noroeste 18 Noroeste 0 -- -- 66
2021-02-03 17:00:00 15.4 10 Oeste 24 Oeste 0 -- -- 60
2021-02-03 16:00:00 16 12 Sudoeste 24 Sudoeste 0 -- -- 57
2021-02-03 15:00:00 15.9 11 Sudoeste 22 Sudoeste 0 -- -- 58
2021-02-03 14:00:00 15 10 Sudoeste 21 Sudoeste 0 -- -- 57
2021-02-03 13:00:00 14.4 14 Sudoeste 26 Oeste 0 -- -- 61
2021-02-03 12:00:00 12.8 15 Sudoeste 30 Sudoeste 0 -- -- 65
2021-02-03 11:00:00 10.8 20 Sudoeste 28 Sudoeste 0 -- -- 70
2021-02-03 10:00:00 8.8 12 Sudoeste 23 Sur 0 -- -- 77
2021-02-03 09:00:00 8.3 10 Sudoeste 22 Sudoeste 0 -- -- 78
2021-02-03 08:00:00 8.8 13 Sudoeste 23 Sudoeste 0 -- -- 79
2021-02-03 07:00:00 9 16 Sudoeste 23 Sudoeste 0 -- -- 80
2021-02-03 06:00:00 8.9 13 Sudoeste 22 Sudoeste 0 -- -- 81
2021-02-03 05:00:00 8.9 15 Sudoeste 22 Sudoeste 0 -- -- 80
2021-02-03 04:00:00 8.8 13 Sudoeste 22 Sur 0 -- -- 79
2021-02-03 03:00:00 9 14 Sudoeste 22 Sudoeste 0 -- -- 79
2021-02-03 02:00:00 9.3 17 Sudoeste 28 Sudoeste 0 -- -- 78
2021-02-03 01:00:00 9.2 12 Sudoeste 24 Oeste 0 -- -- 82
2021-02-03 00:00:00 9.3 12 Sudoeste 24 Sudoeste 0 -- -- 82
2021-02-02 23:00:00 9.5 12 Sudoeste 25 Sudoeste 0 -- -- 81
2021-02-02 22:00:00 9.9 12 Sudoeste 25 Oeste 0 -- -- 80
2021-02-02 21:00:00 10.7 12 Sudoeste 24 Sudoeste 0 -- -- 79
2021-02-02 20:00:00 11.2 10 Oeste 15 Sudoeste 0 -- -- 77
2021-02-02 19:00:00 11.9 10 Oeste 19 Sudoeste 0 -- -- 74
2021-02-02 18:00:00 13.7 12 Oeste 25 Oeste 0 -- -- 67
2021-02-02 17:00:00 15 18 Oeste 27 Oeste 0 -- -- 62
2021-02-02 16:00:00 15.6 19 Oeste 36 Oeste 0 -- -- 59
2021-02-02 15:00:00 15.8 20 Oeste 32 Oeste 0 -- -- 58
2021-02-02 14:00:00 15.2 20 Oeste 30 Oeste 0 -- -- 59
2021-02-02 13:00:00 13.7 19 Oeste 30 Oeste 0 -- -- 66
2021-02-02 12:00:00 13.7 17 Oeste 28 Oeste 0 -- -- 67
2021-02-02 11:00:00 11.7 13 Sudoeste 26 Sudoeste 0 -- -- 80
2021-02-02 10:00:00 8.7 17 Sudoeste 29 Sudoeste 0 -- -- 91
2021-02-02 09:00:00 7.9 19 Sudoeste 32 Sudoeste 0 -- -- 94
2021-02-02 08:00:00 7.8 17 Sudoeste 28 Sudoeste 0 -- -- 94
2021-02-02 07:00:00 7.8 15 Sudoeste 27 Sudoeste 0 -- -- 92
2021-02-02 06:00:00 7.9 14 Sudoeste 26 Sudoeste 0 -- -- 89
2021-02-02 05:00:00 7.9 17 Sudoeste 34 Sudoeste 0 -- -- 89
2021-02-02 04:00:00 7.8 21 Sudoeste 33 Sudoeste 0 -- -- 87
2021-02-02 03:00:00 8.1 20 Sudoeste 36 Sudoeste 0 -- -- 88
2021-02-02 02:00:00 7.4 14 Sudoeste 25 Sudoeste 0 -- -- 90
2021-02-02 01:00:00 7.7 16 Sudoeste 32 Sudoeste 0 -- -- 89
2021-02-02 00:00:00 7.9 20 Sudoeste 38 Sudoeste 0 -- -- 87
2021-02-01 23:00:00 8.1 22 Sudoeste 38 Sudoeste 0 -- -- 86
2021-02-01 22:00:00 8.6 22 Sudoeste 44 Sudoeste 0 -- -- 84
2021-02-01 21:00:00 8.7 20 Sudoeste 39 Sudoeste 0 -- -- 84
2021-02-01 20:00:00 9.1 20 Sudoeste 40 Sudoeste 0 -- -- 83
2021-02-01 19:00:00 9.9 22 Sudoeste 50 Sudoeste 0 -- -- 79
2021-02-01 18:00:00 11.7 35 Sudoeste 57 Sudoeste 0 -- -- 73
2021-02-01 17:00:00 12.9 39 Oeste 59 Oeste 0 -- -- 69
2021-02-01 16:00:00 13.5 36 Oeste 63 Oeste 0 -- -- 67
2021-02-01 15:00:00 13.6 39 Sudoeste 60 Oeste 0 -- -- 69
2021-02-01 14:00:00 13.9 32 Sudoeste 55 Oeste 0 -- -- 70
2021-02-01 13:00:00 13.1 38 Oeste 56 Sudoeste 0 -- -- 72
2021-02-01 12:00:00 12.4 28 Sudoeste 55 Sudoeste 0 -- -- 74
2021-02-01 11:00:00 11.3 34 Sudoeste 59 Sudoeste 0 -- -- 78
2021-02-01 10:00:00 10 30 Sudoeste 50 Sudoeste 0 -- -- 84
2021-02-01 09:00:00 8.8 29 Sudoeste 56 Sudoeste 0 -- -- 87
2021-02-01 08:00:00 8.8 26 Sudoeste 51 Oeste 0 -- -- 87
2021-02-01 07:00:00 9.1 26 Sudoeste 55 Oeste 0 -- -- 87
2021-02-01 06:00:00 9.4 31 Sudoeste 56 Sudoeste 0 -- -- 86
2021-02-01 05:00:00 9.5 28 Sudoeste 57 Sudoeste 0 -- -- 88
2021-02-01 04:00:00 9.7 32 Sudoeste 56 Sudoeste 0 -- -- 88
2021-02-01 03:00:00 10.1 30 Sudoeste 50 Sudoeste 0 -- -- 89
2021-02-01 02:00:00 10.7 28 Sudoeste 56 Sudoeste 0 -- -- 89
2021-02-01 01:00:00 11.2 24 Sudoeste 48 Sudoeste 0 -- -- 90
2021-02-01 00:00:00 11.4 28 Sudoeste 52 Oeste 0 -- -- 92
2021-01-31 23:00:00 11.4 26 Sudoeste 57 Sudoeste 0 -- -- 91
2021-01-31 22:00:00 11.1 28 Sudoeste 51 Sudoeste 0 -- -- 93
2021-01-31 21:00:00 10.8 28 Sudoeste 50 Sudoeste 0 -- -- 94
2021-01-31 20:00:00 10.4 28 Sudoeste 47 Sudoeste 0 -- -- 93
2021-01-31 19:00:00 10.3 25 Sudoeste 49 Sudoeste 0 -- -- 92
2021-01-31 18:00:00 10.1 28 Sudoeste 51 Sudoeste 0 -- -- 91
2021-01-31 17:00:00 10 29 Sudoeste 55 Oeste 0.4 -- -- 91
2021-01-31 16:00:00 9.7 34 Sudoeste 58 Sudoeste 0 -- -- 91
2021-01-31 15:00:00 9.2 33 Sudoeste 57 Oeste 0 -- -- 92
2021-01-31 14:00:00 8.9 31 Sudoeste 52 Sudoeste 0 -- -- 92
2021-01-31 13:00:00 8.5 27 Sudoeste 59 Sudoeste 0 -- -- 90
2021-01-31 12:00:00 8.4 30 Sudoeste 59 Sudoeste 0 -- -- 89
2021-01-31 11:00:00 8.4 33 Sudoeste 61 Sudoeste 0 -- -- 82
2021-01-31 10:00:00 7.9 27 Sudoeste 61 Sudoeste 0 -- -- 83
2021-01-31 09:00:00 6.6 27 Sudoeste 50 Sudoeste 0 -- -- 87
2021-01-31 08:00:00 5.8 23 Sudoeste 46 Sudoeste 0 -- -- 88
2021-01-31 07:00:00 5.9 25 Sudoeste 54 Sudoeste 0 -- -- 87
2021-01-31 06:00:00 5.9 26 Sudoeste 49 Oeste 0 -- -- 86
2021-01-31 05:00:00 6.3 25 Sudoeste 48 Sudoeste 0 -- -- 85
2021-01-31 04:00:00 6.7 27 Sudoeste 48 Sudoeste 0 -- -- 85
2021-01-31 03:00:00 6.9 26 Sudoeste 45 Sudoeste 0 -- -- 84
2021-01-31 02:00:00 7 24 Sudoeste 48 Sudoeste 0 -- -- 82
2021-01-31 01:00:00 6.9 26 Sudoeste 53 Oeste 0 -- -- 81
2021-01-31 00:00:00 7.2 28 Sudoeste 51 Sudoeste 0 -- -- 80
2021-01-30 23:00:00 7.6 28 Sudoeste 49 Sudoeste 0 -- -- 78
2021-01-30 22:00:00 8.1 26 Sudoeste 53 Sudoeste 0 -- -- 76
2021-01-30 21:00:00 8.7 33 Sudoeste 62 Sudoeste 0 -- -- 77
2021-01-30 20:00:00 9.1 29 Sudoeste 49 Sudoeste 0 -- -- 76
2021-01-30 19:00:00 9.4 31 Sudoeste 52 Oeste 0 -- -- 70
2021-01-30 18:00:00 10.3 30 Sudoeste 64 Sudoeste 0 -- -- 66
2021-01-30 17:00:00 11.5 38 Sudoeste 66 Oeste 0 -- -- 58
2021-01-30 16:00:00 12.7 33 Sudoeste 62 Sudoeste 0 -- -- 60
2021-01-30 15:00:00 11.9 33 Sudoeste 64 Sudoeste 0 -- -- 61
2021-01-30 14:00:00 11.9 41 Sudoeste 63 Sudoeste 0 -- -- 61
2021-01-30 13:00:00 11.8 39 Sudoeste 61 Sudoeste 0 -- -- 67
2021-01-30 12:00:00 11.4 38 Sudoeste 65 Sudoeste 0 -- -- 72
2021-01-30 11:00:00 10.5 30 Sudoeste 55 Sudoeste 0.2 -- -- 90
2021-01-30 10:00:00 9.8 28 Sudoeste 52 Sudoeste 0 -- -- 91
2021-01-30 09:00:00 9 30 Sudoeste 47 Sudoeste 0.4 -- -- 93
2021-01-30 08:00:00 9.9 26 Sudoeste 53 Sudoeste 0 -- -- 87
2021-01-30 07:00:00 10.1 37 Sudoeste 51 Sudoeste 0 -- -- 86
2021-01-30 06:00:00 9.9 21 Sudoeste 39 Sudoeste 0 -- -- 89
2021-01-30 05:00:00 9.9 18 Sudoeste 31 Oeste 0 -- -- 90
2021-01-30 04:00:00 9.9 17 Sudoeste 30 Sudoeste 0 -- -- 90
2021-01-30 03:00:00 9.7 12 Sur 28 Sudoeste 0 -- -- 90
2021-01-30 02:00:00 9.3 16 Sudoeste 23 Sudoeste 0 -- -- 91
2021-01-30 01:00:00 8.9 14 Sudoeste 24 Sudoeste 0 -- -- 87
2021-01-30 00:00:00 9 10 Sudoeste 18 Sudoeste 0 -- -- 83
2021-01-29 23:00:00 10.2 11 Sudoeste 22 Oeste 0 -- -- 78
2021-01-29 22:00:00 10.9 13 Sudoeste 27 Sudoeste 0 -- -- 75
2021-01-29 21:00:00 12.1 17 Sudoeste 30 Sudoeste 0 -- -- 72
2021-01-29 20:00:00 12.8 12 Sudoeste 26 Sudoeste 0 -- -- 72
2021-01-29 19:00:00 14.6 15 Sudoeste 28 Oeste 0 -- -- 66
2021-01-29 18:00:00 16.9 18 Oeste 31 Oeste 0 -- -- 60
2021-01-29 17:00:00 18.6 21 Oeste 36 Sudoeste 0 -- -- 51
2021-01-29 16:00:00 18.7 26 Oeste 37 Sudoeste 0 -- -- 53
2021-01-29 15:00:00 18.3 17 Sudoeste 29 Oeste 0 -- -- 61
2021-01-29 14:00:00 16.9 15 Oeste 22 Sudoeste 0 -- -- 66
2021-01-29 13:00:00 15.7 10 Oeste 17 Oeste 0 -- -- 67
2021-01-29 12:00:00 13.4 3 Oeste 8 Oeste 0 -- -- 93
2021-01-29 11:00:00 7.6 3 Este 6 Norte 0 -- -- 96
2021-01-29 10:00:00 6.1 0 Calma 19 Norte 0 -- -- 97
2021-01-29 09:00:00 3.7 3 Sudoeste 8 Sudoeste 0 -- -- 97
2021-01-29 08:00:00 3.1 0 Calma 4 Norte 0 -- -- 96
2021-01-29 07:00:00 4.4 3 Norte 6 Nordeste 0 -- -- 96
2021-01-29 06:00:00 5.5 4 Sudoeste 8 Sudoeste 0 -- -- 96
2021-01-29 05:00:00 5.7 5 Sudoeste 8 Sudoeste 0 -- -- 97
2021-01-29 04:00:00 6.3 5 Sudoeste 7 Sudoeste 0 -- -- 97
2021-01-29 03:00:00 6.2 2 Sudoeste 6 Sudoeste 0 -- -- 97
2021-01-29 02:00:00 6.4 0 Calma 6 Sudoeste 0 -- -- 97
2021-01-29 01:00:00 7.4 6 Oeste 9 Sudoeste 0 -- -- 97
2021-01-29 00:00:00 6.7 2 Sudoeste 5 Sudoeste 0 -- -- 96
2021-01-28 23:00:00 7.5 0 Calma 5 Sur 0 -- -- 96
2021-01-28 22:00:00 8.6 0 Calma 2 Sudoeste 0 -- -- 95
2021-01-28 21:00:00 9.4 0 Calma 2 Sudoeste 0 -- -- 94
2021-01-28 20:00:00 10.3 0 Calma 4 Sudoeste 0 -- -- 93
2021-01-28 19:00:00 11.5 3 Oeste 7 Oeste 0 -- -- 89
2021-01-28 18:00:00 14 5 Oeste 13 Oeste 0 -- -- 79
2021-01-28 17:00:00 16.1 8 Oeste 15 Oeste 0 -- -- 71
2021-01-28 16:00:00 16.1 10 Oeste 16 Oeste 0 -- -- 70
2021-01-28 15:00:00 16.2 9 Oeste 15 Oeste 0 -- -- 86
2021-01-28 14:00:00 15.2 8 Noroeste 15 Oeste 0 -- -- 93
2021-01-28 13:00:00 11.5 6 Oeste 13 Oeste 0 -- -- 95
2021-01-28 12:00:00 10.1 5 Oeste 12 Noroeste 0 -- -- 97
2021-01-28 11:00:00 9.2 5 Oeste 11 Oeste 0 -- -- 97
2021-01-28 10:00:00 8.3 7 Oeste 10 Oeste 0 -- -- 97
2021-01-28 09:00:00 8.2 6 Oeste 10 Oeste 0 -- -- 97
2021-01-28 08:00:00 8.2 7 Sudoeste 12 Sudoeste 0.2 -- -- 97
2021-01-28 07:00:00 8.3 6 Oeste 14 Oeste 0 -- -- 97
2021-01-28 06:00:00 8.5 8 Oeste 15 Oeste 0 -- -- 97
2021-01-28 05:00:00 8.6 9 Oeste 19 Oeste 0 -- -- 97
2021-01-28 04:00:00 8.9 10 Oeste 25 Oeste 0 -- -- 96
2021-01-28 03:00:00 9 15 Oeste 26 Oeste 0 -- -- 95
2021-01-28 02:00:00 9.1 10 Oeste 15 Sudoeste 0 -- -- 95
2021-01-28 01:00:00 9.8 10 Sudoeste 17 Oeste 0 -- -- 95
2021-01-28 00:00:00 10.1 12 Sudoeste 18 Sudoeste 0 -- -- 94
2021-01-27 23:00:00 10.9 10 Sudoeste 21 Sudoeste 0 -- -- 93
2021-01-27 22:00:00 10.7 7 Sudoeste 15 Oeste 0 -- -- 92
2021-01-27 21:00:00 11.8 12 Oeste 15 Oeste 0 -- -- 91
2021-01-27 20:00:00 12.6 12 Oeste 15 Oeste 0 -- -- 88
2021-01-27 19:00:00 12.9 9 Oeste 14 Oeste 0 -- -- 85
2021-01-27 18:00:00 15.2 9 Oeste 17 Oeste 0 -- -- 77
2021-01-27 17:00:00 16.2 14 Oeste 23 Oeste 0 -- -- 72
2021-01-27 16:00:00 17.8 16 Oeste 27 Oeste 0 -- -- 67
2021-01-27 15:00:00 16.2 15 Oeste 24 Oeste 0 -- -- 73
2021-01-27 14:00:00 15.5 13 Oeste 21 Oeste 0 -- -- 76
2021-01-27 13:00:00 13.8 12 Oeste 26 Noroeste 0 -- -- 83
2021-01-27 12:00:00 13.3 14 Oeste 27 Oeste 0 -- -- 86
2021-01-27 11:00:00 13 17 Oeste 30 Oeste 0 -- -- 94
2021-01-27 10:00:00 12.3 12 Oeste 20 Oeste 0 -- -- 96
2021-01-27 09:00:00 11.9 14 Oeste 21 Oeste 0 -- -- 96
2021-01-27 08:00:00 12 14 Oeste 26 Oeste 0.2 -- -- 96
2021-01-27 07:00:00 12.2 12 Oeste 22 Oeste 0 -- -- 96
2021-01-27 06:00:00 12.3 11 Sudoeste 19 Sudoeste 0 -- -- 96
2021-01-27 05:00:00 12.3 12 Sudoeste 26 Sudoeste 0 -- -- 96
2021-01-27 04:00:00 12.3 12 Sudoeste 22 Sudoeste 0 -- -- 96
2021-01-27 03:00:00 12.2 10 Sudoeste 23 Sudoeste 0 -- -- 96
2021-01-27 02:00:00 12.1 12 Sudoeste 22 Sudoeste 0 -- -- 95
2021-01-27 01:00:00 12 14 Sudoeste 24 Sudoeste 0 -- -- 95
2021-01-27 00:00:00 12.4 20 Sudoeste 30 Oeste 0 -- -- 94
2021-01-26 23:00:00 12.3 13 Sudoeste 21 Sudoeste 0 -- -- 93
2021-01-26 22:00:00 12.3 11 Sudoeste 26 Sudoeste 0 -- -- 93
2021-01-26 21:00:00 12.3 14 Sudoeste 30 Sudoeste 0 -- -- 92
2021-01-26 20:00:00 12.2 19 Sudoeste 28 Sudoeste 0 -- -- 92
2021-01-26 19:00:00 12.4 13 Oeste 23 Oeste 0 -- -- 90
2021-01-26 18:00:00 12.8 14 Sudoeste 28 Sudoeste 0 -- -- 87
2021-01-26 17:00:00 13.7 15 Sudoeste 29 Sudoeste 0 -- -- 84
2021-01-26 16:00:00 14.4 19 Sudoeste 31 Sudoeste 0 -- -- 80
2021-01-26 15:00:00 13.3 17 Sudoeste 31 Sudoeste 0 -- -- 82
2021-01-26 14:00:00 13.4 17 Oeste 31 Sudoeste 0 -- -- 80
2021-01-26 13:00:00 12.3 19 Sudoeste 33 Sudoeste 0.2 -- -- 87
2021-01-26 12:00:00 12.2 18 Sudoeste 29 Sudoeste 0 -- -- 89
2021-01-26 11:00:00 11.4 13 Sudoeste 25 Sudoeste 0 -- -- 95
2021-01-26 10:00:00 10.6 14 Sudoeste 28 Oeste 0 -- -- 95
2021-01-26 09:00:00 10.5 9 Sudoeste 21 Sudoeste 0 -- -- 96
2021-01-26 08:00:00 10.5 13 Sudoeste 21 Sudoeste 0 -- -- 95
2021-01-26 07:00:00 10.5 9 Oeste 17 Oeste 0 -- -- 95
2021-01-26 06:00:00 10.6 12 Oeste 21 Oeste 0 -- -- 95
2021-01-26 05:00:00 10.7 13 Oeste 22 Oeste 0 -- -- 95
2021-01-26 04:00:00 10.6 12 Oeste 22 Sudoeste 0 -- -- 95
2021-01-26 03:00:00 10.5 14 Oeste 27 Oeste 0 -- -- 94
2021-01-26 02:00:00 10.8 18 Oeste 32 Oeste 0 -- -- 93
2021-01-26 01:00:00 10.9 21 Oeste 34 Oeste 0 -- -- 93
2021-01-26 00:00:00 10.9 21 Sudoeste 35 Sudoeste 0 -- -- 94
2021-01-25 23:00:00 10.9 22 Sudoeste 37 Sudoeste 0 -- -- 94
2021-01-25 22:00:00 11.1 23 Sudoeste 41 Oeste 0 -- -- 93
2021-01-25 21:00:00 11.2 24 Sudoeste 43 Sudoeste 0 -- -- 92
2021-01-25 20:00:00 11.2 26 Sudoeste 51 Sudoeste 0 -- -- 91
2021-01-25 19:00:00 11.7 31 Sudoeste 53 Sudoeste 0 -- -- 87
2021-01-25 18:00:00 12 29 Sudoeste 50 Sudoeste 0 -- -- 86
2021-01-25 17:00:00 12.5 31 Sudoeste 59 Sudoeste 0.2 -- -- 86
2021-01-25 16:00:00 12.9 37 Sudoeste 62 Sudoeste 0 -- -- 84
2021-01-25 15:00:00 13.4 36 Sudoeste 61 Sudoeste 0 -- -- 82
2021-01-25 14:00:00 12.7 39 Sudoeste 64 Oeste 0 -- -- 83
2021-01-25 13:00:00 11.9 33 Sudoeste 55 Sudoeste 0 -- -- 84
2021-01-25 12:00:00 11.2 33 Sudoeste 54 Sudoeste 0 -- -- 84
2021-01-25 11:00:00 10.5 28 Sudoeste 49 Sudoeste 0 -- -- 86
2021-01-25 10:00:00 9.5 28 Sudoeste 51 Sudoeste 0 -- -- 89
2021-01-25 09:00:00 8.6 25 Sudoeste 45 Sudoeste 0 -- -- 92
2021-01-25 08:00:00 8.7 21 Sudoeste 41 Sudoeste 0 -- -- 87
2021-01-25 07:00:00 8.7 27 Sudoeste 44 Sudoeste 0 -- -- 86
2021-01-25 06:00:00 8.7 26 Sudoeste 42 Sudoeste 0 -- -- 83
2021-01-25 05:00:00 8.3 23 Sudoeste 42 Sudoeste 0 -- -- 86
2021-01-25 04:00:00 8.2 24 Sudoeste 34 Sudoeste 0 -- -- 85
2021-01-25 03:00:00 8.2 20 Sudoeste 36 Sudoeste 0 -- -- 85
2021-01-25 02:00:00 8.1 18 Sudoeste 32 Sudoeste 0 -- -- 84
2021-01-25 01:00:00 8 21 Sudoeste 33 Sudoeste 0 -- -- 84
2021-01-25 00:00:00 7.9 20 Sudoeste 30 Oeste 0 -- -- 82